createdAt,value
2018-09-06T00:00:05.310Z,10.00
2018-09-06T00:02:32.994Z,10.87
2018-09-06T00:05:00.726Z,10.97
2018-09-06T00:07:28.508Z,11.93
2018-09-06T00:09:56.211Z,12.50
2018-09-06T00:12:23.914Z,13.97
2018-09-06T00:14:51.616Z,11.07
2018-09-06T00:17:19.300Z,10.83
2018-09-06T00:19:47.023Z,10.97
2018-09-06T00:22:16.391Z,10.97
2018-09-06T00:24:44.076Z,11.03
2018-09-06T00:27:11.791Z,11.23
2018-09-06T00:29:39.482Z,9.97
2018-09-06T00:32:07.183Z,10.57
2018-09-06T00:34:36.466Z,10.03
2018-09-06T00:37:04.225Z,10.47
2018-09-06T00:39:31.887Z,9.97
2018-09-06T00:41:59.542Z,10.13
2018-09-06T00:44:27.275Z,10.93
2018-09-06T00:46:55.040Z,10.17
2018-09-06T00:49:22.781Z,11.07
2018-09-06T00:51:50.485Z,9.93
2018-09-06T00:54:18.225Z,10.00
2018-09-06T00:56:45.909Z,10.37
2018-09-06T00:59:13.724Z,10.00
2018-09-06T01:01:41.381Z,9.73
2018-09-06T01:04:09.065Z,10.10
2018-09-06T01:06:36.745Z,9.50
2018-09-06T01:09:05.508Z,9.30
2018-09-06T01:11:33.187Z,9.03
2018-09-06T01:14:00.883Z,8.67
2018-09-06T01:16:28.549Z,8.50
2018-09-06T01:18:56.230Z,8.57
2018-09-06T01:21:23.938Z,8.50
2018-09-06T01:23:51.599Z,8.67
2018-09-06T01:26:19.285Z,8.93
2018-09-06T01:28:47.026Z,9.53
2018-09-06T01:31:14.695Z,8.70
2018-09-06T01:33:42.362Z,8.97
2018-09-06T01:36:15.906Z,9.23
2018-09-06T01:38:43.567Z,9.00
2018-09-06T01:41:11.258Z,9.93
2018-09-06T01:43:38.938Z,9.50
2018-09-06T01:46:06.597Z,9.43
2018-09-06T01:48:34.258Z,9.13
2018-09-06T01:51:01.954Z,9.70
2018-09-06T01:53:29.657Z,9.83
2018-09-06T01:55:57.729Z,10.10
2018-09-06T01:58:25.533Z,9.90
2018-09-06T02:00:53.206Z,10.37
2018-09-06T02:03:20.897Z,10.00
2018-09-06T02:05:48.626Z,10.60
2018-09-06T02:08:16.286Z,9.83
2018-09-06T02:10:43.967Z,10.90
2018-09-06T02:13:11.651Z,10.70
2018-09-06T02:15:39.314Z,10.33
2018-09-06T02:18:06.964Z,10.27
2018-09-06T02:20:34.693Z,10.97
2018-09-06T02:23:02.353Z,11.90
2018-09-06T02:25:30.094Z,11.17
2018-09-06T02:27:57.827Z,12.03
2018-09-06T02:30:25.547Z,11.73
2018-09-06T02:32:53.264Z,11.13
2018-09-06T02:35:20.970Z,11.20
2018-09-06T02:37:48.654Z,12.37
2018-09-06T02:40:21.926Z,12.57
2018-09-06T02:42:49.594Z,12.83
2018-09-06T02:45:17.310Z,12.37
2018-09-06T02:47:50.613Z,12.53
2018-09-06T02:50:23.782Z,12.03
2018-09-06T02:52:52.293Z,11.93
2018-09-06T02:55:20.043Z,11.77
2018-09-06T02:57:48.301Z,12.83
2018-09-06T03:00:18.861Z,12.50
2018-09-06T03:02:46.550Z,12.87
2018-09-06T03:05:14.218Z,12.50
2018-09-06T03:07:41.908Z,12.07
2018-09-06T03:10:09.593Z,13.30
2018-09-06T03:12:37.265Z,11.93
2018-09-06T03:15:04.998Z,11.20
2018-09-06T03:17:32.662Z,12.20
2018-09-06T03:20:00.363Z,12.70
2018-09-06T03:22:28.069Z,12.47
2018-09-06T03:24:55.721Z,12.77
2018-09-06T03:27:23.404Z,11.03
2018-09-06T03:29:51.106Z,13.13
2018-09-06T03:32:18.822Z,11.47
2018-09-06T03:34:46.497Z,12.53
2018-09-06T03:37:14.194Z,12.13
2018-09-06T03:39:41.876Z,12.27
2018-09-06T03:42:09.537Z,13.30
2018-09-06T03:44:37.241Z,18.97
2018-09-06T03:47:04.905Z,13.70
2018-09-06T03:49:32.582Z,12.47
2018-09-06T03:52:00.393Z,12.03
2018-09-06T03:54:28.058Z,12.50
2018-09-06T03:56:55.974Z,11.83
2018-09-06T03:59:23.677Z,12.00
2018-09-06T04:01:51.386Z,12.83
2018-09-06T04:04:19.152Z,12.07
2018-09-06T04:06:46.865Z,12.40
2018-09-06T04:09:14.565Z,11.93
2018-09-06T04:11:42.229Z,12.53
2018-09-06T04:14:09.933Z,12.73
2018-09-06T04:16:37.778Z,11.60
2018-09-06T04:19:05.837Z,12.30
2018-09-06T04:21:33.562Z,11.53
2018-09-06T04:24:01.312Z,14.27
2018-09-06T04:26:28.981Z,11.77
2018-09-06T04:28:56.690Z,10.73
2018-09-06T04:31:24.403Z,10.83
2018-09-06T04:33:52.135Z,11.23
2018-09-06T04:36:19.951Z,10.60
2018-09-06T04:38:47.525Z,10.50
2018-09-06T04:41:15.213Z,10.03
2018-09-06T04:43:43.063Z,11.63
2018-09-06T04:46:10.730Z,11.27
2018-09-06T04:48:38.469Z,10.77
2018-09-06T04:51:06.245Z,10.60
2018-09-06T04:53:33.993Z,10.50
2018-09-06T04:56:01.658Z,10.13
2018-09-06T04:58:29.458Z,11.20
2018-09-06T05:00:57.078Z,11.90
2018-09-06T05:03:24.742Z,10.93
2018-09-06T05:05:52.446Z,11.93
2018-09-06T05:08:20.119Z,11.20
2018-09-06T05:10:47.790Z,11.03
2018-09-06T05:13:15.522Z,12.33
2018-09-06T05:15:43.337Z,12.20
2018-09-06T05:18:11.110Z,11.40
2018-09-06T05:20:38.846Z,11.50
2018-09-06T05:23:06.531Z,10.97
2018-09-06T05:25:34.670Z,12.03
2018-09-06T05:28:02.721Z,11.20
2018-09-06T05:30:30.450Z,11.10
2018-09-06T05:32:58.114Z,10.23
2018-09-06T05:35:25.822Z,11.03
2018-09-06T05:37:53.490Z,11.87
2018-09-06T05:40:21.175Z,11.97
2018-09-06T05:42:48.882Z,11.20
2018-09-06T05:45:16.537Z,11.80
2018-09-06T05:47:48.690Z,11.73
2018-09-06T05:50:16.363Z,12.03
2018-09-06T05:52:44.031Z,12.37
2018-09-06T05:55:11.721Z,12.40
2018-09-06T05:57:39.410Z,13.27
2018-09-06T06:01:10.203Z,13.27
2018-09-06T06:03:37.886Z,12.50
2018-09-06T06:06:05.563Z,13.20
2018-09-06T06:08:40.001Z,13.70
2018-09-06T06:11:07.742Z,14.77
2018-09-06T06:13:35.436Z,14.00
2018-09-06T06:16:03.189Z,14.50
2018-09-06T06:18:30.829Z,13.57
2018-09-06T06:20:58.528Z,12.87
2018-09-06T06:23:26.261Z,14.13
2018-09-06T06:25:54.176Z,14.07
2018-09-06T06:28:21.904Z,14.00
2018-09-06T06:30:49.598Z,13.43
2018-09-06T06:33:17.273Z,14.10
2018-09-06T06:35:44.962Z,13.20
2018-09-06T06:38:12.703Z,13.57
2018-09-06T06:40:40.424Z,12.83
2018-09-06T06:43:08.092Z,13.37
2018-09-06T06:45:35.769Z,13.00
2018-09-06T06:48:03.442Z,12.43
2018-09-06T06:50:31.382Z,12.83
2018-09-06T06:52:58.968Z,12.50
2018-09-06T06:55:26.662Z,13.03
2018-09-06T06:57:54.340Z,12.23
2018-09-06T07:00:22.070Z,11.93
2018-09-06T07:02:50.666Z,10.57
2018-09-06T07:05:18.375Z,13.43
2018-09-06T07:07:46.115Z,11.23
2018-09-06T07:10:13.804Z,11.63
2018-09-06T07:12:41.495Z,11.57
2018-09-06T07:15:09.257Z,12.50
2018-09-06T07:17:37.032Z,13.07
2018-09-06T07:20:04.830Z,12.13
2018-09-06T07:22:33.212Z,12.57
2018-09-06T07:25:01.193Z,12.60
2018-09-06T07:27:28.970Z,11.83
2018-09-06T07:29:56.756Z,13.07
2018-09-06T07:32:24.469Z,12.03
2018-09-06T07:34:52.175Z,12.90
2018-09-06T07:37:19.903Z,12.00
2018-09-06T07:39:47.573Z,11.87
2018-09-06T07:42:15.240Z,12.00
2018-09-06T07:44:42.945Z,12.33
2018-09-06T07:47:10.630Z,11.40
2018-09-06T07:49:38.301Z,11.30
2018-09-06T07:52:06.279Z,11.70
2018-09-06T07:54:33.979Z,11.27
2018-09-06T07:57:01.659Z,11.73
2018-09-06T07:59:29.384Z,11.77
2018-09-06T08:01:57.046Z,10.90
2018-09-06T08:04:24.749Z,12.03
2018-09-06T08:06:52.535Z,11.50
2018-09-06T08:09:21.208Z,11.77
2018-09-06T08:11:49.014Z,9.50
2018-09-06T08:14:16.938Z,9.50
2018-09-06T08:16:44.730Z,10.40
2018-09-06T08:19:12.523Z,11.03
2018-09-06T08:21:40.248Z,10.90
2018-09-06T08:24:08.018Z,11.53
2018-09-06T08:26:35.753Z,10.77
2018-09-06T08:29:03.524Z,10.70
2018-09-06T08:31:31.330Z,10.33
2018-09-06T08:33:58.941Z,9.27
2018-09-06T08:36:26.703Z,10.47
2018-09-06T08:38:54.462Z,9.90
2018-09-06T08:41:22.162Z,10.63
2018-09-06T08:43:49.938Z,11.00
2018-09-06T08:46:17.714Z,10.17
2018-09-06T08:48:46.366Z,8.93
2018-09-06T08:51:14.144Z,10.13
2018-09-06T08:53:41.945Z,10.70
2018-09-06T08:56:09.666Z,10.43
2018-09-06T08:58:37.430Z,11.00
2018-09-06T09:01:10.917Z,11.53
2018-09-06T09:03:38.941Z,10.73
2018-09-06T09:06:07.064Z,10.57
2018-09-06T09:08:34.918Z,11.00
2018-09-06T09:11:02.635Z,11.50
2018-09-06T09:13:30.475Z,11.17
2018-09-06T09:15:58.255Z,10.53
2018-09-06T09:18:26.089Z,11.33
2018-09-06T09:20:53.780Z,10.70
2018-09-06T09:23:21.688Z,9.87
2018-09-06T09:25:49.507Z,10.30
2018-09-06T09:28:17.409Z,10.53
2018-09-06T09:30:45.311Z,11.10
2018-09-06T09:33:13.113Z,10.70
2018-09-06T09:35:40.844Z,9.83
2018-09-06T09:38:09.070Z,10.43
2018-09-06T09:40:36.858Z,9.73
2018-09-06T09:43:04.597Z,9.93
2018-09-06T09:45:32.344Z,10.03
2018-09-06T09:48:00.124Z,9.37
2018-09-06T09:52:55.170Z,9.43
2018-09-06T09:55:22.985Z,10.60
2018-09-06T09:57:50.751Z,10.63
2018-09-06T10:00:23.009Z,9.43
2018-09-06T10:02:56.148Z,9.90
2018-09-06T10:05:29.382Z,10.60
2018-09-06T10:07:58.062Z,10.40
2018-09-06T10:10:26.361Z,10.47
2018-09-06T10:12:54.112Z,9.50
2018-09-06T10:15:21.882Z,9.77
2018-09-06T10:17:49.595Z,9.57
2018-09-06T10:20:17.454Z,10.33
2018-09-06T10:22:45.281Z,9.80
2018-09-06T10:25:13.123Z,9.67
2018-09-06T10:27:41.087Z,10.03
2018-09-06T10:30:08.878Z,11.40
2018-09-06T10:32:36.677Z,10.33
2018-09-06T10:35:04.553Z,10.43
2018-09-06T10:37:32.309Z,9.73
2018-09-06T10:40:00.119Z,9.53
2018-09-06T10:42:27.993Z,8.77
2018-09-06T10:44:55.749Z,9.27
2018-09-06T10:47:23.593Z,8.80
2018-09-06T10:49:51.369Z,10.13
2018-09-06T10:52:19.220Z,9.37
2018-09-06T10:54:46.963Z,9.20
2018-09-06T10:57:14.870Z,8.83
2018-09-06T10:59:42.661Z,8.37
2018-09-06T11:02:10.531Z,8.73
2018-09-06T11:04:38.379Z,8.93
2018-09-06T11:07:06.286Z,8.80
2018-09-06T11:09:34.068Z,9.13
2018-09-06T11:12:01.745Z,9.10
2018-09-06T11:14:29.471Z,9.10
2018-09-06T11:16:57.178Z,9.30
2018-09-06T11:19:24.896Z,8.93
2018-09-06T11:21:52.727Z,9.67
2018-09-06T11:24:20.331Z,9.37
2018-09-06T11:26:48.078Z,9.10
2018-09-06T11:29:15.816Z,9.20
2018-09-06T11:31:43.573Z,7.93
2018-09-06T11:34:11.350Z,9.00
2018-09-06T11:36:39.002Z,8.93
2018-09-06T11:39:09.337Z,9.67
2018-09-06T11:41:37.428Z,9.43
2018-09-06T11:44:05.659Z,10.10
2018-09-06T11:46:33.483Z,9.47
2018-09-06T11:49:01.233Z,9.27
2018-09-06T11:51:29.050Z,8.30
2018-09-06T11:53:56.774Z,8.80
2018-09-06T11:56:24.562Z,9.23
2018-09-06T11:58:52.273Z,8.87
2018-09-06T12:01:20.072Z,9.03
2018-09-06T12:03:47.974Z,8.77
2018-09-06T12:06:15.772Z,9.37
2018-09-06T12:08:43.494Z,9.30
2018-09-06T12:11:11.278Z,9.53
2018-09-06T12:13:39.038Z,9.77
2018-09-06T12:16:07.484Z,8.77
2018-09-06T12:18:35.242Z,9.27
2018-09-06T12:21:03.051Z,8.53
2018-09-06T12:23:30.853Z,9.87
2018-09-06T12:25:58.641Z,9.77
2018-09-06T12:28:26.848Z,10.10
2018-09-06T12:30:54.566Z,9.90
2018-09-06T12:33:23.137Z,10.07
2018-09-06T12:35:51.125Z,9.73
2018-09-06T12:38:18.933Z,9.60
2018-09-06T12:40:46.752Z,10.30
2018-09-06T12:43:14.502Z,9.90
2018-09-06T12:45:42.253Z,10.10
2018-09-06T12:48:10.090Z,10.03
2018-09-06T12:50:37.762Z,10.57
2018-09-06T12:53:05.682Z,10.13
2018-09-06T12:55:33.435Z,9.53
2018-09-06T12:58:01.259Z,9.77
2018-09-06T13:00:29.142Z,10.03
2018-09-06T13:02:56.914Z,9.60
2018-09-06T13:05:24.683Z,10.03
2018-09-06T13:07:52.393Z,9.53
2018-09-06T13:10:20.176Z,10.53
2018-09-06T13:12:47.991Z,9.80
2018-09-06T13:15:16.065Z,10.90
2018-09-06T13:17:43.865Z,9.50
2018-09-06T13:20:11.557Z,10.20
2018-09-06T13:22:39.354Z,10.10
2018-09-06T13:25:07.153Z,9.63
2018-09-06T13:27:34.881Z,9.50
2018-09-06T13:30:02.618Z,8.63
2018-09-06T13:32:30.415Z,9.17
2018-09-06T13:34:58.101Z,10.27
2018-09-06T13:37:25.848Z,9.50
2018-09-06T13:39:53.616Z,9.80
2018-09-06T13:42:21.306Z,9.27
2018-09-06T13:44:49.042Z,9.17
2018-09-06T13:47:16.762Z,9.73
2018-09-06T13:49:44.768Z,9.40
2018-09-06T13:52:12.469Z,8.87
2018-09-06T13:54:40.205Z,8.73
2018-09-06T13:57:07.942Z,9.37
2018-09-06T13:59:35.682Z,8.97
2018-09-06T14:02:03.493Z,8.70
2018-09-06T14:04:31.209Z,8.03
2018-09-06T14:06:58.943Z,8.37
2018-09-06T14:09:27.030Z,8.40
2018-09-06T14:11:54.785Z,7.70
2018-09-06T14:14:22.465Z,8.57
2018-09-06T14:16:50.288Z,7.80
2018-09-06T14:19:17.981Z,8.37
2018-09-06T14:21:45.697Z,8.17
2018-09-06T14:24:13.513Z,8.37
2018-09-06T14:26:41.200Z,8.33
2018-09-06T14:29:09.001Z,9.20
2018-09-06T14:31:36.723Z,8.80
2018-09-06T14:34:04.839Z,8.43
2018-09-06T14:36:32.616Z,8.27
2018-09-06T14:39:01.223Z,9.87
2018-09-06T14:41:29.058Z,9.37
2018-09-06T14:43:56.774Z,7.90
2018-09-06T14:46:24.575Z,7.93
2018-09-06T14:48:52.391Z,8.97
2018-09-06T14:51:20.109Z,9.07
2018-09-06T14:53:47.902Z,8.70
2018-09-06T14:56:15.634Z,8.97
2018-09-06T14:58:43.335Z,9.43
2018-09-06T15:01:11.087Z,9.45
2018-09-06T15:03:38.773Z,9.70
2018-09-06T15:06:06.473Z,9.63
2018-09-06T15:08:34.212Z,8.60
2018-09-06T15:11:01.885Z,8.73
2018-09-06T15:13:29.579Z,8.70
2018-09-06T15:15:57.331Z,8.63
2018-09-06T15:18:25.082Z,8.70
2018-09-06T15:20:52.776Z,9.07
2018-09-06T15:23:20.578Z,8.33
2018-09-06T15:25:48.636Z,9.13
2018-09-06T15:28:16.408Z,10.83
2018-09-06T15:30:44.168Z,9.57
2018-09-06T15:33:11.893Z,10.90
2018-09-06T15:35:39.645Z,11.10
2018-09-06T15:38:07.505Z,10.73
2018-09-06T15:40:35.294Z,10.30
2018-09-06T15:43:03.030Z,10.83
2018-09-06T15:45:30.813Z,10.50
2018-09-06T15:47:58.544Z,10.60
2018-09-06T15:50:26.255Z,11.33
2018-09-06T15:52:54.031Z,10.73
2018-09-06T15:55:21.724Z,11.73
2018-09-06T15:57:49.489Z,11.60
2018-09-06T16:00:17.226Z,11.20
2018-09-06T16:02:44.971Z,11.13
2018-09-06T16:05:12.769Z,10.43
2018-09-06T16:07:40.567Z,11.27
2018-09-06T16:10:08.389Z,10.40
2018-09-06T16:12:36.175Z,11.97
2018-09-06T16:15:04.000Z,13.37
2018-09-06T16:17:31.726Z,11.50
2018-09-06T16:19:59.590Z,11.70
2018-09-06T16:22:27.658Z,10.10
2018-09-06T16:24:55.370Z,11.93
2018-09-06T16:27:23.101Z,12.50
2018-09-06T16:29:50.909Z,12.07
2018-09-06T16:32:18.644Z,12.43
2018-09-06T16:34:46.471Z,12.77
2018-09-06T16:37:14.290Z,13.07
2018-09-06T16:39:41.934Z,12.63
2018-09-06T16:42:09.665Z,15.00
2018-09-06T16:44:37.415Z,16.97
2018-09-06T16:47:05.166Z,15.70
2018-09-06T16:49:32.934Z,16.30
2018-09-06T16:52:00.653Z,11.73
2018-09-06T16:54:28.350Z,13.17
2018-09-06T16:56:56.062Z,13.00
2018-09-06T16:59:23.805Z,12.57
2018-09-06T17:01:51.498Z,13.90
2018-09-06T17:04:19.258Z,12.63
2018-09-06T17:06:47.019Z,12.47
2018-09-06T17:09:14.790Z,13.70
2018-09-06T17:11:42.486Z,15.10
2018-09-06T17:14:10.232Z,13.07
2018-09-06T17:16:37.941Z,14.80
2018-09-06T17:19:05.737Z,12.40
2018-09-06T17:21:33.508Z,13.07
2018-09-06T17:24:01.241Z,13.80
2018-09-06T17:26:28.969Z,12.67
2018-09-06T17:28:56.794Z,12.00
2018-09-06T17:31:24.474Z,12.90
2018-09-06T17:33:52.216Z,12.23
2018-09-06T17:36:19.962Z,12.17
2018-09-06T17:38:47.765Z,10.77
2018-09-06T17:41:15.425Z,11.63
2018-09-06T17:43:44.321Z,12.63
2018-09-06T17:46:12.137Z,13.60
2018-09-06T17:48:39.920Z,14.67
2018-09-06T17:51:07.713Z,13.13
2018-09-06T17:53:35.492Z,14.33
2018-09-06T17:56:03.201Z,15.43
2018-09-06T17:58:30.971Z,16.63
2018-09-06T18:01:41.084Z,15.20
2018-09-06T18:04:08.849Z,15.77
2018-09-06T18:06:36.578Z,16.03
2018-09-06T18:09:08.262Z,15.37
2018-09-06T18:11:36.150Z,15.63
2018-09-06T18:14:03.998Z,16.67
2018-09-06T18:16:31.794Z,17.77
2018-09-06T18:18:59.544Z,16.33
2018-09-06T18:21:27.276Z,15.97
2018-09-06T18:23:55.838Z,15.33
2018-09-06T18:31:20.452Z,15.80
2018-09-06T18:33:48.212Z,14.80
2018-09-06T18:36:15.985Z,15.07
2018-09-06T18:38:44.507Z,16.47
2018-09-06T18:41:12.228Z,15.37
2018-09-06T18:43:39.993Z,14.60
2018-09-06T18:46:07.817Z,15.57
2018-09-06T18:48:35.493Z,14.70
2018-09-06T18:51:03.245Z,14.47
2018-09-06T18:53:31.105Z,15.43
2018-09-06T18:55:58.865Z,14.50
2018-09-06T18:58:26.619Z,13.77
2018-09-06T19:00:54.377Z,13.20
2018-09-06T19:03:22.070Z,13.87
2018-09-06T19:05:49.802Z,14.10
2018-09-06T19:08:17.502Z,13.87
2018-09-06T19:10:45.174Z,14.30
2018-09-06T19:13:12.885Z,14.00
2018-09-06T19:15:40.604Z,14.60
2018-09-06T19:18:08.429Z,15.63
2018-09-06T19:20:36.140Z,13.33
2018-09-06T19:23:03.916Z,14.33
2018-09-06T19:25:31.607Z,15.47
2018-09-06T19:27:59.316Z,14.03
2018-09-06T19:30:27.185Z,14.30
2018-09-06T19:32:54.918Z,14.20
2018-09-06T19:35:22.653Z,13.77
2018-09-06T19:37:50.401Z,13.17
2018-09-06T19:40:18.150Z,13.53
2018-09-06T19:42:45.893Z,12.87
2018-09-06T19:45:13.617Z,13.27
2018-09-06T19:47:41.346Z,13.97
2018-09-06T19:50:09.074Z,12.70
2018-09-06T19:52:36.833Z,13.23
2018-09-06T19:55:04.622Z,12.47
2018-09-06T19:57:32.642Z,12.50
2018-09-06T20:00:00.470Z,13.97
2018-09-06T20:02:28.233Z,13.93
2018-09-06T20:04:56.567Z,14.63
2018-09-06T20:07:24.313Z,16.23
2018-09-06T20:09:52.101Z,15.97
2018-09-06T20:12:19.844Z,16.67
2018-09-06T20:14:47.550Z,16.90
2018-09-06T20:17:15.300Z,16.83
2018-09-06T20:19:43.021Z,16.60
2018-09-06T20:22:10.764Z,16.80
2018-09-06T20:24:38.564Z,16.43
2018-09-06T20:27:06.237Z,16.03
2018-09-06T20:29:33.990Z,15.80
2018-09-06T20:32:01.697Z,15.70
2018-09-06T20:34:29.681Z,16.33
2018-09-06T20:36:57.410Z,15.90
2018-09-06T20:39:25.177Z,15.87
2018-09-06T20:41:52.929Z,14.80
2018-09-06T20:44:20.711Z,15.73
2018-09-06T20:46:48.405Z,14.40
2018-09-06T20:49:16.098Z,14.77
2018-09-06T20:51:43.793Z,14.27
2018-09-06T20:54:11.565Z,15.23
2018-09-06T20:56:39.349Z,14.00
2018-09-06T20:59:07.163Z,14.83
2018-09-06T21:01:34.892Z,14.70
2018-09-06T21:04:02.661Z,13.83
2018-09-06T21:06:30.382Z,14.10
2018-09-06T21:08:58.121Z,16.17
2018-09-06T21:11:25.893Z,15.00
2018-09-06T21:13:53.590Z,14.33
2018-09-06T21:16:21.374Z,14.90
2018-09-06T21:18:49.052Z,14.43
2018-09-06T21:21:16.753Z,14.60
2018-09-06T21:23:44.470Z,14.27
2018-09-06T21:26:12.161Z,14.77
2018-09-06T21:28:39.934Z,14.80
2018-09-06T21:31:07.732Z,14.50
2018-09-06T21:33:35.433Z,14.10
2018-09-06T21:36:03.129Z,14.73
2018-09-06T21:38:30.797Z,14.53
2018-09-06T21:40:58.462Z,13.17
2018-09-06T21:43:26.261Z,15.03
2018-09-06T21:45:53.964Z,14.33
2018-09-06T21:48:21.684Z,15.50
2018-09-06T21:50:49.396Z,13.80
2018-09-06T21:53:17.071Z,15.20
2018-09-06T21:55:44.777Z,14.50
2018-09-06T21:58:12.477Z,14.97
2018-09-06T22:00:40.177Z,14.47
2018-09-06T22:03:13.351Z,13.40
2018-09-06T22:05:41.047Z,13.43
2018-09-06T22:08:08.725Z,10.80
2018-09-06T22:10:36.488Z,8.83
2018-09-06T22:13:04.180Z,6.77
2018-09-06T22:15:31.901Z,4.40
2018-09-06T22:17:59.604Z,3.70
2018-09-06T22:20:27.258Z,3.67
2018-09-06T22:22:55.077Z,3.70
2018-09-06T22:25:22.782Z,3.47
2018-09-06T22:27:50.482Z,3.83
2018-09-06T22:30:18.216Z,3.07
2018-09-06T22:32:45.949Z,3.30
2018-09-06T22:35:13.612Z,3.77
2018-09-06T22:37:41.289Z,3.17
2018-09-06T22:40:09.019Z,3.60
2018-09-06T22:42:36.698Z,3.40
2018-09-06T22:45:04.414Z,3.50
2018-09-06T22:47:32.082Z,3.70
2018-09-06T22:49:59.763Z,3.50
2018-09-06T22:52:27.721Z,4.03
2018-09-06T22:54:55.414Z,3.63
2018-09-06T22:57:23.127Z,3.37
2018-09-06T22:59:50.798Z,4.40
2018-09-06T23:02:35.319Z,3.97
2018-09-06T23:05:04.203Z,3.80
2018-09-06T23:07:31.910Z,3.73
2018-09-06T23:09:59.629Z,3.37
2018-09-06T23:12:29.029Z,3.73
2018-09-06T23:14:57.081Z,3.53
2018-09-06T23:17:33.594Z,3.40
2018-09-06T23:20:01.272Z,3.80
2018-09-06T23:22:38.926Z,3.73
2018-09-06T23:25:07.981Z,3.20
2018-09-06T23:27:38.258Z,3.40
2018-09-06T23:30:07.545Z,3.43
2018-09-06T23:32:35.337Z,3.33
2018-09-06T23:35:04.018Z,3.47
2018-09-06T23:37:31.700Z,3.30
2018-09-06T23:42:42.634Z,3.23
2018-09-06T23:45:16.532Z,4.27
2018-09-06T23:47:45.155Z,4.30
2018-09-06T23:50:21.246Z,3.63
2018-09-06T23:52:49.342Z,4.20
2018-09-06T23:55:17.971Z,3.47
2018-09-06T23:57:46.867Z,3.63
